Time;durP1;ratioP1;P1;durP2;ratioP2;P2;SDS_P1;SDS_P2;PMS_P1;PMS_P2;Temp;Humidity;BMP_temperature;BMP_pressure;BME280_temperature;BME280_humidity;BME280_pressure;Samples;Min_cycle;Max_cycle;Signal;HPM_P1;HPM_P2
2020/12/01 14:50:28;;;;;;;4.67;2.72;;;22.90;44.60;;;;;;1586251;87;25949;-37
2020/12/01 14:53:16;;;;;;;4.85;2.08;;;22.90;44.90;;;;;;1436783;97;67555;-32
2020/12/01 14:55:50;;;;;;;2.62;2.00;;;22.90;44.90;;;;;;1422604;95;67836;-37
2020/12/01 14:58:37;;;;;;;3.72;1.98;;;22.90;44.90;;;;;;1395937;101;21197;-38
2020/12/01 15:01:27;;;;;;;2.87;2.17;;;22.90;44.90;;;;;;1397529;101;67373;-33
2020/12/01 15:04:10;;;;;;;2.85;2.00;;;22.90;44.90;;;;;;1399588;97;67675;-36
2020/12/01 15:07:09;;;;;;;2.33;2.02;;;22.90;45.10;;;;;;1395803;101;67369;-32
2020/12/01 15:09:56;;;;;;;2.52;2.02;;;23.00;45.00;;;;;;1397572;98;67745;-36
2020/12/01 15:12:52;;;;;;;3.12;2.35;;;23.00;44.80;;;;;;1398689;101;67339;-36
2020/12/01 15:15:22;;;;;;;2.72;2.22;;;22.90;44.90;;;;;;1400860;100;67456;-36
2020/12/01 15:17:52;;;;;;;3.58;2.10;;;22.90;44.90;;;;;;1399061;101;21790;-35
2020/12/01 15:20:22;;;;;;;11.35;2.02;;;22.80;44.90;;;;;;1398496;101;21291;-34
2020/12/01 15:23:05;;;;;;;3.50;2.33;;;22.90;44.90;;;;;;1384617;101;21701;-34
2020/12/01 15:25:34;;;;;;;2.50;1.90;;;22.80;44.90;;;;;;1400060;101;21213;-34
2020/12/01 15:28:08;;;;;;;2.95;2.12;;;22.80;45.00;;;;;;1378634;102;21369;-33
2020/12/01 15:30:35;;;;;;;3.85;1.95;;;22.80;45.00;;;;;;1399706;101;21281;-36
2020/12/01 15:33:04;;;;;;;2.08;1.75;;;22.80;45.00;;;;;;1400747;101;21272;-33
2020/12/01 15:35:37;;;;;;;4.08;2.10;;;22.90;45.40;;;;;;1364370;102;21797;-33
2020/12/01 15:38:11;;;;;;;3.12;2.25;;;22.90;45.00;;;;;;1401004;101;21476;-37
2020/12/01 15:40:45;;;;;;;4.28;2.02;;;22.90;44.90;;;;;;1380785;102;22202;-36
2020/12/01 15:43:15;;;;;;;3.27;2.15;;;22.80;45.10;;;;;;1379770;102;21252;-36
2020/12/01 15:45:44;;;;;;;5.25;2.50;;;22.70;45.30;;;;;;1397359;101;21881;-35
2020/12/01 15:48:14;;;;;;;2.60;2.02;;;22.70;45.30;;;;;;1396720;101;21794;-34
2020/12/01 15:50:43;;;;;;;3.25;1.82;;;22.60;45.40;;;;;;1400894;101;21721;-33
2020/12/01 15:53:14;;;;;;;4.22;2.40;;;22.60;45.40;;;;;;1423252;99;21295;-33
2020/12/01 15:55:47;;;;;;;3.30;1.80;;;22.60;45.50;;;;;;1422324;99;21666;-34
2020/12/01 15:58:30;;;;;;;3.27;1.80;;;22.60;45.50;;;;;;1422586;99;21240;-34
2020/12/01 16:01:12;;;;;;;2.67;1.77;;;22.60;45.50;;;;;;1439077;97;67880;-36
2020/12/01 16:04:04;;;;;;;2.17;1.90;;;22.50;45.50;;;;;;1434833;98;67992;-36
2020/12/01 16:06:55;;;;;;;3.08;2.10;;;22.50;45.60;;;;;;1421045;96;67409;-36
2020/12/01 16:09:49;;;;;;;3.20;1.72;;;22.50;45.60;;;;;;1424995;96;67481;-35
2020/12/01 16:12:39;;;;;;;2.95;1.90;;;22.40;45.60;;;;;;1421843;97;67926;-36
2020/12/01 16:15:32;;;;;;;2.67;1.82;;;22.40;45.60;;;;;;1420577;97;67516;-35
2020/12/01 16:18:03;;;;;;;2.35;1.80;;;22.40;45.70;;;;;;1411357;96;67490;-35
2020/12/01 16:20:36;;;;;;;5.00;1.87;;;22.40;45.80;;;;;;1422844;99;21540;-34
2020/12/01 16:23:05;;;;;;;2.62;2.10;;;22.40;45.80;;;;;;1424252;99;21269;-34
2020/12/01 16:25:33;;;;;;;3.83;2.05;;;22.40;45.80;;;;;;1422647;99;21232;-34
2020/12/01 16:28:13;;;;;;;2.72;1.80;;;22.30;45.80;;;;;;1426368;99;21418;-32
2020/12/01 16:30:41;;;;;;;2.80;1.75;;;22.30;45.80;;;;;;1423001;99;21276;-34
2020/12/01 16:33:12;;;;;;;2.92;1.98;;;22.30;45.90;;;;;;1409659;100;21813;-33
2020/12/01 16:35:40;;;;;;;4.15;1.67;;;22.30;45.90;;;;;;1422218;99;22250;-35
2020/12/01 16:38:22;;;;;;;3.22;1.92;;;22.30;45.90;;;;;;1402746;100;21428;-34
2020/12/01 16:41:07;;;;;;;3.92;1.82;;;22.30;45.90;;;;;;1423026;99;67958;-33
2020/12/01 16:43:59;;;;;;;2.17;1.67;;;22.30;45.90;;;;;;1421393;99;68008;-33
2020/12/01 16:46:41;;;;;;;4.05;2.15;;;22.30;45.90;;;;;;1423596;96;67697;-38
2020/12/01 16:49:15;;;;;;;2.35;1.80;;;22.30;46.00;;;;;;1407090;99;21951;-36
2020/12/01 16:51:51;;;;;;;2.35;1.57;;;22.20;46.00;;;;;;1422742;99;21385;-33
2020/12/01 16:54:31;;;;;;;3.70;2.08;;;22.20;46.00;;;;;;1420694;99;21815;-35
2020/12/01 16:57:30;;;;;;;2.30;1.75;;;22.20;46.00;;;;;;1401933;100;68197;-34
2020/12/01 17:00:26;;;;;;;3.35;2.08;;;22.20;46.00;;;;;;1421906;96;67830;-37
2020/12/01 17:03:14;;;;;;;3.50;1.70;;;22.20;46.10;;;;;;1422269;96;68111;-36
2020/12/01 17:05:51;;;;;;;2.42;1.70;;;22.20;46.10;;;;;;1421247;97;67697;-34
2020/12/01 17:08:19;;;;;;;2.17;1.65;;;22.20;46.10;;;;;;1406564;99;21593;-34
2020/12/01 17:10:50;;;;;;;6.10;1.77;;;22.20;46.10;;;;;;1423850;99;21618;-33
2020/12/01 17:13:37;;;;;;;2.55;1.50;;;22.20;46.10;;;;;;1417213;99;21362;-36
2020/12/01 17:16:19;;;;;;;2.55;1.70;;;22.20;46.20;;;;;;1417500;99;67949;-33
2020/12/01 17:18:47;;;;;;;2.02;1.70;;;22.20;46.20;;;;;;1420376;99;67787;-34
2020/12/01 17:21:16;;;;;;;1.98;1.60;;;22.20;46.20;;;;;;1420641;99;21342;-33
2020/12/01 17:23:46;;;;;;;1.65;1.50;;;22.20;46.20;;;;;;1425879;99;21336;-33
2020/12/01 17:26:16;;;;;;;2.30;1.55;;;22.10;46.10;;;;;;1426792;99;21327;-34
2020/12/01 17:28:47;;;;;;;2.65;1.70;;;22.10;46.10;;;;;;1404679;99;21306;-34
2020/12/01 17:31:29;;;;;;;2.75;1.70;;;22.20;46.20;;;;;;1419492;99;21463;-33
2020/12/01 17:34:20;;;;;;;2.58;1.42;;;22.10;46.20;;;;;;1402270;100;67988;-34
2020/12/01 17:36:54;;;;;;;1.90;1.60;;;22.10;46.20;;;;;;1422185;97;68467;-36
2020/12/01 17:39:47;;;;;;;2.08;1.57;;;22.10;46.20;;;;;;1405754;99;21312;-36
2020/12/01 17:42:45;;;;;;;3.52;1.62;;;22.10;46.20;;;;;;1425946;96;67925;-36
2020/12/01 17:45:21;;;;;;;1.40;1.30;;;22.10;46.20;;;;;;1424531;96;67653;-37
2020/12/01 17:48:10;;;;;;;5.83;2.25;;;22.10;46.20;;;;;;1421056;99;21366;-35
2020/12/01 17:50:44;;;;;;;2.80;1.77;;;22.10;46.20;;;;;;1413625;95;67432;-37
2020/12/01 17:53:24;;;;;;;2.72;1.60;;;22.10;46.20;;;;;;1403782;100;21764;-36
2020/12/01 17:55:50;;;;;;;3.00;1.55;;;22.10;46.20;;;;;;1404450;100;21256;-35
2020/12/01 17:58:20;;;;;;;2.67;1.60;;;22.10;46.20;;;;;;1370420;101;21276;-35
2020/12/01 18:00:48;;;;;;;2.95;1.60;;;22.10;46.30;;;;;;1383905;102;21272;-35
2020/12/01 18:03:18;;;;;;;2.37;1.77;;;22.00;46.20;;;;;;1387502;102;21378;-36
2020/12/01 18:05:48;;;;;;;3.12;1.37;;;22.10;46.30;;;;;;1372539;101;21645;-36
2020/12/01 18:08:24;;;;;;;2.02;1.40;;;22.10;46.30;;;;;;1384036;102;21768;-33
2020/12/01 18:11:03;;;;;;;2.05;1.70;;;22.00;46.30;;;;;;1365477;102;21302;-35
2020/12/01 18:13:33;;;;;;;1.85;1.60;;;22.10;46.50;;;;;;1384900;102;67415;-33
2020/12/01 18:16:15;;;;;;;1.20;1.10;;;22.10;46.40;;;;;;1388972;102;21737;-34
2020/12/01 18:18:49;;;;;;;2.92;1.72;;;22.10;46.40;;;;;;1369993;103;67801;-35
2020/12/01 18:21:26;;;;;;;1.55;1.17;;;22.10;46.40;;;;;;1371217;103;22121;-35
2020/12/01 18:24:11;;;;;;;1.77;1.47;;;22.10;46.30;;;;;;1371506;103;21284;-33
2020/12/01 18:26:57;;;;;;;1.52;1.32;;;22.20;46.30;;;;;;1377675;102;67606;-34
2020/12/01 18:29:31;;;;;;;2.72;1.90;;;22.20;46.30;;;;;;1382605;102;68147;-35
2020/12/01 18:32:01;;;;;;;2.87;1.67;;;22.20;46.40;;;;;;1384066;102;21225;-34
2020/12/01 18:35:01;;;;;;;5.00;2.00;;;22.20;46.40;;;;;;1385346;101;21257;-35
2020/12/01 18:37:32;;;;;;;4.33;1.72;;;22.30;46.40;;;;;;1380774;100;67738;-34
2020/12/01 18:40:02;;;;;;;1.90;1.70;;;22.40;46.60;;;;;;1386264;102;22027;-34
2020/12/01 18:42:32;;;;;;;2.70;2.08;;;22.40;46.50;;;;;;1386575;102;21353;-37
2020/12/01 18:45:11;;;;;;;2.40;1.45;;;22.40;46.50;;;;;;1387264;102;21302;-33
2020/12/01 18:47:39;;;;;;;3.75;1.75;;;22.40;46.70;;;;;;1387116;102;21273;-35
2020/12/01 18:50:07;;;;;;;2.27;1.70;;;22.40;46.20;;;;;;1373463;101;21327;-34
2020/12/01 18:52:35;;;;;;;2.17;1.77;;;22.50;46.30;;;;;;1401766;101;21367;-33
2020/12/01 18:55:03;;;;;;;2.50;2.00;;;22.50;46.20;;;;;;1423231;99;21234;-35
2020/12/01 18:57:31;;;;;;;2.20;1.70;;;22.50;46.10;;;;;;1405714;99;21238;-35
2020/12/01 18:59:59;;;;;;;2.52;1.77;;;22.50;46.10;;;;;;1421802;99;21724;-34
2020/12/01 19:02:26;;;;;;;2.80;1.90;;;22.50;46.00;;;;;;1369187;101;21366;-33
2020/12/01 19:04:54;;;;;;;7.12;1.75;;;22.50;46.00;;;;;;1421278;99;21316;-33
2020/12/01 19:07:22;;;;;;;2.40;1.70;;;22.60;46.10;;;;;;1399329;101;21295;-34
2020/12/01 19:09:50;;;;;;;2.85;1.98;;;22.60;46.00;;;;;;1384710;101;21272;-36
2020/12/01 19:12:17;;;;;;;3.02;2.00;;;22.60;45.90;;;;;;1400009;101;21423;-34
2020/12/01 19:14:45;;;;;;;2.05;1.80;;;22.60;45.90;;;;;;1399962;101;21264;-36
2020/12/01 19:17:14;;;;;;;2.33;1.52;;;22.60;45.90;;;;;;1405587;99;21776;-35
2020/12/01 19:19:42;;;;;;;3.15;2.00;;;22.60;45.90;;;;;;1398748;101;21866;-36
2020/12/01 19:22:10;;;;;;;1.90;1.60;;;22.60;46.00;;;;;;1408211;99;21298;-33
2020/12/01 19:24:37;;;;;;;2.37;1.77;;;22.60;46.00;;;;;;1399583;101;21850;-33
2020/12/01 19:27:05;;;;;;;2.22;1.60;;;22.60;46.10;;;;;;1422105;99;21301;-36
2020/12/01 19:29:33;;;;;;;2.87;1.80;;;22.60;46.10;;;;;;1385136;101;21738;-36
2020/12/01 19:32:00;;;;;;;2.60;1.98;;;22.60;46.10;;;;;;1401719;101;21351;-35
2020/12/01 19:34:28;;;;;;;2.27;1.70;;;22.60;46.00;;;;;;1415634;99;21226;-35
2020/12/01 19:36:57;;;;;;;3.05;1.80;;;22.60;46.00;;;;;;1427003;99;21779;-33
2020/12/01 19:39:27;;;;;;;2.00;1.80;;;22.70;46.00;;;;;;1399417;101;21280;-34
2020/12/01 19:41:55;;;;;;;2.00;1.80;;;22.70;46.00;;;;;;1390474;101;21385;-33
2020/12/01 19:44:23;;;;;;;1.72;1.62;;;22.70;46.10;;;;;;1427990;99;21281;-34
2020/12/01 19:46:51;;;;;;;2.92;1.80;;;22.70;46.10;;;;;;1406387;101;21367;-34
2020/12/01 19:49:20;;;;;;;3.20;2.25;;;22.70;46.00;;;;;;1427479;99;21793;-34
2020/12/01 19:51:48;;;;;;;2.52;2.02;;;22.70;45.90;;;;;;1406699;99;21267;-34
2020/12/01 19:54:16;;;;;;;1.67;1.57;;;22.70;45.90;;;;;;1410556;100;21251;-37
2020/12/01 19:56:44;;;;;;;2.45;1.70;;;22.70;46.50;;;;;;1391373;101;21254;-35
2020/12/01 19:59:12;;;;;;;5.67;2.27;;;22.70;45.90;;;;;;1407037;100;21282;-32
2020/12/01 20:01:40;;;;;;;2.67;2.17;;;22.70;45.90;;;;;;1395645;100;21757;-32
2020/12/01 20:04:07;;;;;;;4.12;1.60;;;22.80;45.90;;;;;;1408071;100;21287;-37
2020/12/01 20:06:36;;;;;;;1.70;1.60;;;22.80;46.30;;;;;;1408678;99;21394;-34
2020/12/01 20:09:04;;;;;;;4.55;1.72;;;22.80;45.80;;;;;;1389217;100;21832;-37
2020/12/01 20:11:31;;;;;;;2.45;1.77;;;22.70;46.00;;;;;;1406216;100;21790;-33
2020/12/01 20:13:59;;;;;;;2.35;1.60;;;22.80;45.80;;;;;;1405711;99;21357;-33
2020/12/01 20:16:27;;;;;;;3.60;1.80;;;22.80;45.80;;;;;;1401646;100;21362;-36
2020/12/01 20:18:55;;;;;;;2.00;1.72;;;22.80;45.70;;;;;;1408362;100;21770;-33
2020/12/01 20:21:22;;;;;;;2.95;1.57;;;22.80;45.70;;;;;;1392790;100;21988;-35
2020/12/01 20:23:50;;;;;;;2.27;1.87;;;22.80;45.60;;;;;;1404650;99;21829;-35
2020/12/01 20:26:19;;;;;;;2.20;1.87;;;22.80;45.60;;;;;;1407952;100;21351;-33
2020/12/01 20:28:46;;;;;;;3.90;1.72;;;22.80;45.60;;;;;;1391331;100;21227;-36
2020/12/01 20:31:15;;;;;;;2.33;1.77;;;22.70;45.60;;;;;;1403930;100;21268;-33
2020/12/01 20:33:43;;;;;;;3.20;1.98;;;22.70;45.70;;;;;;1412287;100;21786;-34
2020/12/01 20:36:19;;;;;;;4.62;1.70;;;22.80;46.30;;;;;;1393139;101;21366;-34
2020/12/01 20:39:25;;;;;;;6.55;1.95;;;22.70;45.60;;;;;;1357118;102;21685;-36
2020/12/01 20:41:53;;;;;;;2.25;1.72;;;22.70;45.60;;;;;;1389313;98;68116;-38
2020/12/01 20:44:20;;;;;;;2.85;2.05;;;22.70;45.70;;;;;;1406299;100;21381;-33
2020/12/01 20:46:48;;;;;;;2.52;1.90;;;22.70;45.60;;;;;;1390555;102;22221;-33
2020/12/01 20:49:16;;;;;;;1.90;1.75;;;22.70;46.10;;;;;;1361583;103;21273;-35
2020/12/01 20:51:43;;;;;;;2.45;1.80;;;22.70;45.70;;;;;;1409861;100;21911;-33
2020/12/01 20:54:11;;;;;;;2.75;1.75;;;22.70;45.70;;;;;;1392096;101;21292;-33
2020/12/01 20:56:39;;;;;;;1.87;1.65;;;22.70;45.80;;;;;;1400694;101;21278;-34
2020/12/01 20:59:06;;;;;;;1.65;1.55;;;22.70;45.70;;;;;;1402142;101;21261;-34
2020/12/01 21:01:34;;;;;;;2.42;1.57;;;22.70;45.80;;;;;;1407520;99;21424;-33
2020/12/01 21:04:02;;;;;;;2.00;1.60;;;22.70;45.90;;;;;;1421837;99;21660;-36
2020/12/01 21:06:29;;;;;;;1.52;1.40;;;22.70;45.80;;;;;;1420610;98;21240;-34
2020/12/01 21:08:57;;;;;;;2.77;1.75;;;22.70;45.80;;;;;;1423788;99;21925;-36
2020/12/01 21:11:52;;;;;;;2.45;1.85;;;22.70;45.70;;;;;;1423540;99;21287;-35
2020/12/01 21:14:22;;;;;;;2.65;2.08;;;22.70;45.50;;;;;;1421514;97;67496;-37
2020/12/01 21:17:05;;;;;;;2.65;1.90;;;22.50;45.60;;;;;;1418673;99;21321;-34
2020/12/01 21:19:32;;;;;;;2.35;1.70;;;22.40;45.90;;;;;;1400790;99;70108;-36
2020/12/01 21:22:03;;;;;;;2.50;1.90;;;22.30;46.10;;;;;;1420502;99;21205;-37
2020/12/01 21:24:31;;;;;;;3.75;2.27;;;22.30;46.20;;;;;;1421701;99;21426;-34
2020/12/01 21:27:02;;;;;;;2.47;1.72;;;22.20;46.20;;;;;;1407040;99;21330;-36
2020/12/01 21:29:44;;;;;;;2.10;1.90;;;22.20;46.30;;;;;;1422431;99;21240;-34
2020/12/01 21:32:15;;;;;;;2.75;1.50;;;22.20;46.40;;;;;;1418657;99;21205;-35
2020/12/01 21:34:48;;;;;;;2.10;1.90;;;22.20;46.40;;;;;;1422619;99;21628;-35
2020/12/01 21:37:16;;;;;;;2.27;1.77;;;22.10;46.30;;;;;;1419198;99;21770;-35
2020/12/01 21:39:44;;;;;;;2.35;2.15;;;22.10;46.30;;;;;;1409105;99;21257;-35
2020/12/01 21:42:34;;;;;;;1.90;1.67;;;22.00;46.30;;;;;;1428198;99;21272;-37
2020/12/01 21:45:11;;;;;;;1.52;1.42;;;22.00;46.40;;;;;;1424411;95;67437;-36
2020/12/01 21:47:39;;;;;;;1.82;1.60;;;22.00;46.90;;;;;;1423605;99;21272;-36
2020/12/01 21:50:07;;;;;;;1.92;1.72;;;22.00;46.40;;;;;;1406837;100;21883;-35
2020/12/01 21:52:57;;;;;;;3.85;2.05;;;22.00;46.40;;;;;;1422299;99;21303;-35
2020/12/01 21:55:52;;;;;;;2.58;2.00;;;21.90;46.40;;;;;;1423097;96;68415;-37
2020/12/01 21:58:42;;;;;;;2.50;1.70;;;21.90;46.40;;;;;;1424517;97;67737;-37
2020/12/01 22:01:32;;;;;;;1.92;1.60;;;21.90;46.40;;;;;;1422693;96;68150;-39
2020/12/01 22:04:08;;;;;;;1.67;1.57;;;21.90;46.40;;;;;;1424261;95;67816;-36
2020/12/01 22:07:12;;;;;;;2.85;2.08;;;21.80;46.40;;;;;;1422085;99;21186;-36
2020/12/01 22:10:16;;;;;;;2.05;1.85;;;21.80;46.40;;;;;;1423310;96;68059;-37
2020/12/01 22:12:49;;;;;;;2.85;1.77;;;21.80;46.40;;;;;;1403462;96;67613;-38
2020/12/01 22:15:28;;;;;;;2.20;1.90;;;21.70;46.40;;;;;;1414280;98;21292;-35
2020/12/01 22:17:58;;;;;;;2.52;2.00;;;21.80;46.40;;;;;;1420703;99;21451;-36
2020/12/01 22:20:42;;;;;;;2.37;2.17;;;21.80;46.40;;;;;;1421367;99;21261;-35
2020/12/01 22:23:31;;;;;;;1.87;1.60;;;21.70;46.40;;;;;;1417719;99;67830;-37
2020/12/01 22:26:01;;;;;;;2.42;2.00;;;21.70;46.40;;;;;;1423211;97;67917;-37
2020/12/01 22:28:50;;;;;;;2.42;1.80;;;21.70;46.40;;;;;;1405107;99;21410;-36
2020/12/01 22:31:37;;;;;;;2.15;1.95;;;21.70;46.40;;;;;;1417283;99;66942;-36
2020/12/01 22:34:25;;;;;;;3.65;1.47;;;21.70;46.40;;;;;;1420807;99;67529;-37
2020/12/01 22:36:54;;;;;;;3.55;2.25;;;21.70;46.40;;;;;;1419445;98;68172;-36
2020/12/01 22:39:22;;;;;;;1.80;1.55;;;21.70;46.40;;;;;;1391190;99;21232;-36
2020/12/01 22:41:59;;;;;;;1.85;1.52;;;21.60;46.90;;;;;;1424566;99;21612;-36
2020/12/01 22:44:46;;;;;;;2.17;1.75;;;21.60;46.90;;;;;;1420651;99;21229;-35
2020/12/01 22:47:36;;;;;;;2.17;1.92;;;21.60;46.10;;;;;;1400625;101;67907;-35
2020/12/01 22:50:09;;;;;;;1.90;1.67;;;21.60;46.30;;;;;;1425640;97;67395;-38
2020/12/01 22:53:04;;;;;;;1.98;1.72;;;21.60;46.30;;;;;;1424427;99;21739;-36
2020/12/01 22:55:54;;;;;;;1.57;1.42;;;21.60;46.30;;;;;;1426827;97;67576;-37
2020/12/01 22:58:25;;;;;;;2.77;2.00;;;21.50;46.30;;;;;;1424466;96;67944;-37
2020/12/01 23:00:56;;;;;;;3.33;2.30;;;21.60;46.30;;;;;;1422946;99;21379;-35
2020/12/01 23:03:30;;;;;;;2.00;1.80;;;21.60;46.30;;;;;;1422124;99;21228;-35
2020/12/01 23:06:07;;;;;;;2.10;1.75;;;21.60;46.30;;;;;;1408473;99;21327;-35
2020/12/01 23:08:37;;;;;;;3.45;1.80;;;21.50;46.10;;;;;;1423842;99;21755;-35
2020/12/01 23:11:10;;;;;;;2.50;1.95;;;21.50;46.20;;;;;;1392399;99;21255;-36
2020/12/01 23:14:02;;;;;;;1.60;1.50;;;21.50;46.20;;;;;;1421683;99;22694;-38
2020/12/01 23:16:35;;;;;;;2.17;1.98;;;21.50;46.20;;;;;;1422288;96;67407;-37
2020/12/01 23:19:06;;;;;;;3.40;2.40;;;21.50;46.20;;;;;;1422078;99;21941;-36
2020/12/01 23:21:38;;;;;;;2.58;1.70;;;21.50;46.20;;;;;;1426353;98;21715;-36
2020/12/01 23:24:06;;;;;;;1.80;1.70;;;21.50;46.20;;;;;;1405335;99;21834;-36
2020/12/01 23:26:53;;;;;;;2.02;1.82;;;21.50;46.20;;;;;;1420712;99;21272;-34
2020/12/01 23:29:24;;;;;;;2.00;1.70;;;21.50;46.20;;;;;;1417426;99;67445;-37
2020/12/01 23:31:55;;;;;;;2.10;1.90;;;21.40;46.10;;;;;;1421318;99;21193;-36
2020/12/01 23:34:23;;;;;;;1.47;1.37;;;21.40;46.10;;;;;;1430698;98;21299;-36
2020/12/01 23:36:54;;;;;;;1.50;1.40;;;21.40;46.20;;;;;;1408249;99;21330;-37
2020/12/01 23:39:22;;;;;;;1.95;1.70;;;21.40;46.20;;;;;;1424756;98;21307;-35
2020/12/01 23:41:58;;;;;;;2.12;1.92;;;21.40;46.10;;;;;;1420179;98;21253;-35
2020/12/01 23:44:46;;;;;;;2.27;1.75;;;21.40;46.20;;;;;;1422967;99;21265;-35
2020/12/01 23:47:23;;;;;;;2.00;1.67;;;21.40;46.10;;;;;;1417948;99;67363;-36
2020/12/01 23:49:56;;;;;;;2.17;1.90;;;21.40;46.20;;;;;;1422469;99;21208;-35
2020/12/01 23:52:27;;;;;;;1.82;1.70;;;21.40;46.10;;;;;;1419742;99;21436;-36
2020/12/01 23:54:55;;;;;;;1.80;1.70;;;21.40;46.20;;;;;;1406797;100;21250;-35
2020/12/01 23:57:31;;;;;;;1.90;1.70;;;21.40;46.20;;;;;;1408518;100;21715;-36
